Terminal Aerodrome Forecast
Issued by NWS

Current Version | Previous Version | Text Only | Print | Product List | Glossary On
Versions: 1 2 3 4 5 6 7 8 9 10 11 12 13 14 15 16 17 18 19 20 21 22 23 24 25 26 27 28 29 30 31 32 33 34 35 36 37
000
FTUS45 KSLC 051345 AAA
TAFEVW
TAF AMD
KEVW 051345Z 0514/0612 27010KT P6SM -SHRA SCT040 BKN080
     FM060000 25006KT P6SM VCSH SCT060 BKN120
     FM060600 25006KT P6SM SCT060 SCT120=

USA.gov is the U.S. government's official web portal to all federal, state and local government web resources and services.